Details From WADD - Denpasar Ngurah Rai Intl
To FACT - Cape Town International
Flight Number -
Tags Generated
Created
Modified
Stats Distance 5,435 nm / 10,065 km
Max Altitude 0 ft / 0 m
Waypoints 3
Social Downloads 1
Likes 0
Share VATSIM

Download

Looking for another format? Having issues loading an existing format? Contact us
Advertisement - Login to hide

Notes

Generated

Route

WADD CTV21 FACT

ID Type Via Altitude Latitude Longitude Leg Dist Tot Dist Heading (true) Name
O WADD APT - 0 ft / 0 m -8.74871˚ 115.15363˚ - 0 nm - -
CTV21 FIX - 0 ft / 0 m -34.00405˚ 18.90301˚ 5419 nm 5419 nm 235° / 281° -
O FACT APT - 0 ft / 0 m -33.96149˚ 18.59772˚ 15 nm 5434 nm 279° / 280° -

Altitude Profile

Advertisement - Login to hide

Weather


0- 5 10 15 20 25 30 35+ Temperature / ° C

Clouds and Precipitation
Forecast for 2017-12-13 12:00 UTC. Updated 27 minutes ago

Ground ~20,000 ft ~40,000 ft Winds

WADD

Details ICAO WADD (DPS)
Name Denpasar Ngurah Rai Intl
Region Indonesia
Timezone Asia/Makassar (UTC+8.0)
Stats Elevation 14 ft / 4 m (AMSL)
Location -8.748169° 115.167174°
Runways 1
Magnetic Variation 1.056° E

METAR

WADD 130930Z 27006KT 9999 FEW015 29/25 Q1007 NOSIG

Decode

TAF

Not found

Departure Runways

ID Width Length Bearing (true) Bearing (mag) Surface Threshold Offset Overrun Length
09 148 ft / 45 m 9,779 ft / 2,981 m 87.71° 86.65° Asphalt 121 ft / 37 m 75 ft / 23 m
27 148 ft / 45 m 9,779 ft / 2,981 m 267.70° 266.64° Asphalt 0 ft / 0 m 197 ft / 60 m

FACT

Details ICAO FACT (CPT)
Name Cape Town International
Region South Africa
Timezone Africa/Johannesburg (UTC+2.0)
Stats Elevation 151 ft / 46 m (AMSL)
Location -33.970501° 18.604405°
Runways 2
Magnetic Variation 25.343° W

METAR

FACT 130934Z 30011KT 270V340 9999 SCT038 BKN045 20/12 Q1016 NOSIG

Decode

TAF

Not found

Destination Runways

ID Width Length Bearing (true) Bearing (mag) Surface Threshold Offset Overrun Length
01 200 ft / 61 m 10,527 ft / 3,209 m 345.27° 10.61° Asphalt 0 ft / 0 m 195 ft / 59 m
16 151 ft / 46 m 5,586 ft / 1,703 m 135.35° 160.69° Asphalt 300 ft / 91 m 0 ft / 0 m
19 200 ft / 61 m 10,527 ft / 3,209 m 165.27° 190.61° Asphalt 0 ft / 0 m 195 ft / 59 m
34 151 ft / 46 m 5,586 ft / 1,703 m 315.35° 340.69° Asphalt 300 ft / 91 m 0 ft / 0 m

Approach Navaids

Runway Type Ident Frequency Range Bearing (true) Bearing (mag) Slope Elevation
01 Localiser CTI 110.30 MHz 18 nm / 33 km 345.21° 10.56° - 151 ft / 46 m (AMSL)
01 Glidescope CTI 110.30 MHz 10 nm / 19 km 345.27° 10.61° 3.00° 151 ft / 46 m (AMSL)
01 DME CTI 110.30 MHz 18 nm / 33 km - - - 151 ft / 46 m (AMSL)
19 Localiser KSI 109.10 MHz 18 nm / 33 km 165.33° 190.67° - 151 ft / 46 m (AMSL)
19 Glidescope KSI 109.10 MHz 10 nm / 19 km 165.27° 190.61° 3.20° 151 ft / 46 m (AMSL)
19 DME KSI 109.10 MHz 18 nm / 33 km - - - 151 ft / 46 m (AMSL)

Popular Alternatives